Time;durP1;ratioP1;P1;durP2;ratioP2;P2;SDS_P1;SDS_P2;PMS_P1;PMS_P2;Temp;Humidity;BMP_temperature;BMP_pressure;BME280_temperature;BME280_humidity;BME280_pressure;Samples;Min_cycle;Max_cycle;Signal;HPM_P1;HPM_P2
2023/01/25 00:01:14;;;;;;;24.38;17.65;;;;;;;3.87;69.32;103639.94;5075497;28;20049;-75
2023/01/25 00:03:39;;;;;;;24.95;19.58;;;;;;;3.89;69.11;103629.97;5075568;28;20033;-76
2023/01/25 00:06:05;;;;;;;20.58;17.92;;;;;;;3.88;69.11;103637.16;5075182;28;20072;-76
2023/01/25 00:08:30;;;;;;;19.35;17.05;;;;;;;3.87;69.24;103635.44;5073983;28;20033;-75
2023/01/25 00:10:58;;;;;;;21.00;18.13;;;;;;;3.87;69.17;103634.59;5075086;28;20480;-74
2023/01/25 00:13:24;;;;;;;15.63;14.57;;;;;;;3.86;69.20;103628.41;5075602;28;20472;-74
2023/01/25 00:15:50;;;;;;;19.13;17.52;;;;;;;3.87;69.34;103640.78;5074131;28;20064;-76
2023/01/25 00:18:15;;;;;;;18.20;16.48;;;;;;;3.87;69.11;103639.94;5073772;28;20041;-73
2023/01/25 00:20:40;;;;;;;34.58;21.60;;;;;;;3.87;69.20;103631.94;5073631;28;20127;-73
2023/01/25 00:23:06;;;;;;;21.42;17.67;;;;;;;3.86;69.00;103630.25;5073479;28;20039;-73
2023/01/25 00:25:31;;;;;;;18.42;16.17;;;;;;;3.86;68.83;103633.75;5074830;28;20035;-74
2023/01/25 00:27:56;;;;;;;24.98;20.20;;;;;;;3.86;69.08;103630.25;5075015;28;20380;-74
2023/01/25 00:30:24;;;;;;;43.35;26.38;;;;;;;3.85;69.23;103640.06;5074744;28;20032;-74
2023/01/25 00:33:01;;;;;;;18.42;16.45;;;;;;;3.86;68.89;103632.91;5074791;28;20028;-75
2023/01/25 00:35:31;;;;;;;22.60;18.08;;;;;;;3.85;69.17;103636.53;5074714;28;20059;-75
2023/01/25 00:38:00;;;;;;;22.73;20.38;;;;;;;3.85;68.89;103623.16;5073507;28;20174;-75
2023/01/25 00:40:26;;;;;;;18.05;15.88;;;;;;;3.85;69.02;103625.84;5074816;28;20464;-75
2023/01/25 00:42:51;;;;;;;25.75;19.55;;;;;;;3.83;68.94;103628.66;5074549;28;20036;-75
2023/01/25 00:45:17;;;;;;;32.90;18.55;;;;;;;3.83;69.26;103631.34;5074629;28;20021;-75
2023/01/25 00:47:43;;;;;;;21.65;18.58;;;;;;;3.83;68.94;103623.31;5073169;28;20046;-75
2023/01/25 00:50:09;;;;;;;25.85;18.50;;;;;;;3.83;69.13;103625.13;5074081;28;20032;-75
2023/01/25 00:52:34;;;;;;;18.48;16.83;;;;;;;3.83;68.82;103626.00;5074333;28;20032;-74
2023/01/25 00:55:00;;;;;;;21.17;18.95;;;;;;;3.83;68.54;103622.44;5074166;28;20031;-75
2023/01/25 00:57:25;;;;;;;18.67;16.45;;;;;;;3.84;68.85;103618.81;5074219;28;20107;-75
2023/01/25 00:59:51;;;;;;;23.88;20.02;;;;;;;3.83;68.98;103611.75;5073982;28;20107;-75
2023/01/25 01:02:16;;;;;;;19.13;16.30;;;;;;;3.84;69.01;103608.13;5074126;28;20481;-75
2023/01/25 01:04:41;;;;;;;20.60;16.98;;;;;;;3.82;69.18;103610.91;5073976;28;20043;-75
2023/01/25 01:07:07;;;;;;;24.15;20.13;;;;;;;3.83;69.00;103617.09;5072316;28;20056;-75
2023/01/25 01:09:32;;;;;;;32.85;22.13;;;;;;;3.82;68.99;103610.06;5073823;28;20471;-75
2023/01/25 01:11:58;;;;;;;25.95;16.48;;;;;;;3.83;68.96;103612.63;5074020;28;20147;-75
2023/01/25 01:14:23;;;;;;;23.38;20.92;;;;;;;3.82;69.04;103599.38;5074069;28;20032;-75
2023/01/25 01:16:48;;;;;;;21.13;18.98;;;;;;;3.81;68.94;103603.88;5072832;28;20107;-75
2023/01/25 01:19:15;;;;;;;23.15;19.95;;;;;;;3.82;68.95;103610.06;5073496;28;20029;-75
2023/01/25 01:21:40;;;;;;;20.83;18.60;;;;;;;3.81;69.01;103611.91;5073738;28;20070;-75
2023/01/25 01:24:07;;;;;;;27.58;21.60;;;;;;;3.81;68.97;103611.91;5055558;28;20472;-75
2023/01/25 01:26:32;;;;;;;26.25;20.02;;;;;;;3.81;68.91;103609.22;5073719;28;20031;-75
2023/01/25 01:28:58;;;;;;;23.30;18.77;;;;;;;3.80;69.26;103602.16;5072628;28;20036;-75
2023/01/25 01:31:27;;;;;;;24.90;18.45;;;;;;;3.81;69.02;103614.56;5073622;28;20025;-77
2023/01/25 01:33:57;;;;;;;18.40;16.50;;;;;;;3.80;69.10;103610.19;5072547;28;20039;-75
2023/01/25 01:36:25;;;;;;;21.67;19.45;;;;;;;3.79;68.82;103608.50;5073374;28;20052;-74
2023/01/25 01:38:51;;;;;;;19.10;17.13;;;;;;;3.80;69.09;103609.34;5073701;28;20104;-75
2023/01/25 01:41:17;;;;;;;28.95;20.27;;;;;;;3.80;68.92;103606.66;5074070;28;20116;-74
2023/01/25 01:43:42;;;;;;;29.40;21.27;;;;;;;3.80;68.88;103609.34;5072264;28;20090;-74
2023/01/25 01:46:20;;;;;;;20.23;18.08;;;;;;;3.80;69.23;103612.84;5073376;28;20044;-74
2023/01/25 01:48:57;;;;;;;25.42;18.25;;;;;;;3.79;68.87;103611.16;5073558;28;20128;-74
2023/01/25 01:51:49;;;;;;;20.65;18.25;;;;;;;3.79;69.17;103610.31;5073705;28;20025;-74
2023/01/25 01:54:24;;;;;;;26.00;19.48;;;;;;;3.78;68.89;103611.28;5073701;28;20357;-75
2023/01/25 01:56:59;;;;;;;12.25;11.45;;;;;;;3.76;69.09;103614.09;5072398;28;20020;-74
2023/01/25 01:59:47;;;;;;;18.17;16.67;;;;;;;3.75;68.75;103604.38;5073342;28;20029;-75
2023/01/25 02:02:13;;;;;;;33.78;23.35;;;;;;;3.76;69.29;103611.44;5071494;28;20499;-76
2023/01/25 02:04:40;;;;;;;18.38;15.77;;;;;;;3.75;69.17;103601.69;5073339;28;20037;-75
2023/01/25 02:07:30;;;;;;;22.20;18.85;;;;;;;3.75;69.24;103600.84;5055433;28;20032;-75
2023/01/25 02:09:57;;;;;;;21.02;16.63;;;;;;;3.75;69.08;103599.03;5073610;28;20085;-75
2023/01/25 02:12:23;;;;;;;22.63;19.65;;;;;;;3.76;68.80;103599.91;5073191;28;20032;-75
2023/01/25 02:14:50;;;;;;;16.88;15.07;;;;;;;3.75;68.91;103587.47;5073817;28;20032;-76
2023/01/25 02:17:25;;;;;;;31.25;20.35;;;;;;;3.74;69.13;103597.34;5072767;28;20032;-75
2023/01/25 02:20:24;;;;;;;17.25;15.13;;;;;;;3.74;69.06;103596.50;5075798;28;20028;-76
2023/01/25 02:22:55;;;;;;;18.40;16.88;;;;;;;3.74;69.27;103592.00;5075933;28;20060;-75
2023/01/25 02:25:21;;;;;;;26.60;20.92;;;;;;;3.73;69.14;103595.66;5076874;28;20357;-76
2023/01/25 02:27:59;;;;;;;19.25;16.27;;;;;;;3.73;68.93;103595.66;5043361;28;20480;-75
2023/01/25 02:30:24;;;;;;;22.30;17.90;;;;;;;3.73;68.99;103592.97;5077097;28;20028;-75
2023/01/25 02:32:50;;;;;;;15.10;13.75;;;;;;;3.73;68.90;103589.44;5077058;28;20031;-75
2023/01/25 02:35:35;;;;;;;19.02;16.95;;;;;;;3.73;69.14;103592.09;5077229;28;20032;-75
2023/01/25 02:38:00;;;;;;;25.58;18.05;;;;;;;3.72;69.15;103583.25;5076382;28;20029;-75
2023/01/25 02:40:27;;;;;;;22.65;20.27;;;;;;;3.73;68.99;103586.75;5076825;28;20028;-75
2023/01/25 02:42:53;;;;;;;22.15;16.55;;;;;;;3.72;68.80;103575.22;5077309;28;20115;-75
2023/01/25 02:45:24;;;;;;;20.63;17.55;;;;;;;3.72;69.14;103582.41;5075404;28;20124;-74
2023/01/25 02:47:49;;;;;;;17.95;16.42;;;;;;;3.72;69.01;103582.41;5076827;28;20029;-74
2023/01/25 02:50:14;;;;;;;20.02;17.92;;;;;;;3.71;69.18;103575.38;5075326;28;20036;-75
2023/01/25 02:52:40;;;;;;;18.75;16.05;;;;;;;3.72;68.82;103580.56;5077163;28;20036;-74
2023/01/25 02:55:06;;;;;;;17.30;15.80;;;;;;;3.71;68.83;103576.22;5075273;28;20032;-75
2023/01/25 02:57:31;;;;;;;15.98;14.40;;;;;;;3.71;68.90;103581.56;5076483;28;20040;-74
2023/01/25 02:59:57;;;;;;;23.30;19.88;;;;;;;3.70;68.93;103577.16;5076007;28;20028;-74
2023/01/25 03:02:22;;;;;;;21.08;18.92;;;;;;;3.70;69.05;103571.81;5076492;28;20532;-73
2023/01/25 03:04:47;;;;;;;17.25;15.75;;;;;;;3.69;68.88;103570.97;5076439;28;20020;-73
2023/01/25 03:07:13;;;;;;;17.05;15.68;;;;;;;3.71;69.13;103572.69;5076399;28;20032;-73
2023/01/25 03:09:38;;;;;;;21.98;17.88;;;;;;;3.69;68.91;103570.97;5075010;28;20554;-73
2023/01/25 03:12:04;;;;;;;20.02;18.08;;;;;;;3.70;69.00;103571.81;5076061;28;20396;-73
2023/01/25 03:14:29;;;;;;;21.20;18.10;;;;;;;3.70;69.19;103569.16;5076471;28;20062;-73
2023/01/25 03:16:55;;;;;;;19.25;17.55;;;;;;;3.69;68.85;103562.13;5074951;28;20033;-73
2023/01/25 03:19:20;;;;;;;21.73;19.70;;;;;;;3.69;69.16;103565.63;5075126;28;20029;-74
2023/01/25 03:21:45;;;;;;;18.35;16.90;;;;;;;3.69;68.93;103560.28;5076074;28;20380;-73
2023/01/25 03:24:11;;;;;;;14.25;13.25;;;;;;;3.69;69.26;103559.44;5075823;28;20102;-75
2023/01/25 03:27:09;;;;;;;45.58;27.00;;;;;;;3.68;68.99;103552.41;5074432;28;20536;-74
2023/01/25 03:29:22;;;;;;;24.65;19.05;;;;;;;3.67;68.97;103551.53;5075569;28;20050;-75
2023/01/25 03:31:50;;;;;;;19.60;17.73;;;;;;;3.68;69.01;103539.03;5073719;28;20036;-74
2023/01/25 03:34:15;;;;;;;19.27;17.23;;;;;;;3.67;68.86;103530.16;5075921;28;20024;-74
2023/01/25 03:36:40;;;;;;;13.35;12.38;;;;;;;3.67;68.95;103538.19;5074419;28;20294;-74
2023/01/25 03:39:06;;;;;;;19.95;17.05;;;;;;;3.66;68.95;103527.63;5076113;28;20357;-74
2023/01/25 03:41:31;;;;;;;25.05;19.33;;;;;;;3.66;68.75;103536.50;5074527;28;20438;-74
2023/01/25 03:43:56;;;;;;;38.80;24.27;;;;;;;3.66;68.79;103527.63;5076062;28;20032;-76
2023/01/25 03:46:22;;;;;;;31.95;20.90;;;;;;;3.66;68.85;103520.44;5075264;28;20059;-76
2023/01/25 03:48:47;;;;;;;19.77;16.52;;;;;;;3.65;69.03;103526.78;5076322;28;20469;-76
2023/01/25 03:51:13;;;;;;;17.38;15.98;;;;;;;3.64;69.04;103522.41;5075933;28;20032;-76
2023/01/25 03:53:38;;;;;;;24.02;21.15;;;;;;;3.65;68.77;103518.75;5075492;28;20229;-76
2023/01/25 03:56:07;;;;;;;27.63;19.98;;;;;;;3.65;69.21;103525.91;5075687;28;20055;-76
2023/01/25 03:58:33;;;;;;;20.63;18.63;;;;;;;3.65;68.81;103523.25;5074122;28;20453;-76
2023/01/25 04:01:00;;;;;;;17.92;16.15;;;;;;;3.64;69.18;103529.56;5071077;28;20064;-76
2023/01/25 04:03:26;;;;;;;18.17;15.95;;;;;;;3.64;68.71;103518.88;5075805;28;20468;-76
2023/01/25 04:05:52;;;;;;;20.98;18.20;;;;;;;3.65;68.76;103523.25;5075250;28;20044;-76
2023/01/25 04:08:18;;;;;;;20.63;17.33;;;;;;;3.65;69.02;103528.59;5075036;28;20029;-76
2023/01/25 04:10:44;;;;;;;28.55;16.85;;;;;;;3.64;69.15;103516.22;5075135;28;20475;-75
2023/01/25 04:13:10;;;;;;;27.42;19.45;;;;;;;3.64;68.83;103516.22;5075756;28;20032;-74
2023/01/25 04:15:35;;;;;;;20.02;18.00;;;;;;;3.64;68.71;103521.56;5075050;28;20035;-75
2023/01/25 04:18:01;;;;;;;21.15;19.10;;;;;;;3.63;68.83;103523.38;5075183;28;20041;-74
2023/01/25 04:20:26;;;;;;;26.05;20.17;;;;;;;3.62;69.02;103521.66;5057337;28;20112;-75
2023/01/25 04:22:52;;;;;;;18.27;16.20;;;;;;;3.63;68.79;103514.53;5074228;28;20529;-74
2023/01/25 04:25:17;;;;;;;34.42;25.45;;;;;;;3.64;68.85;103516.22;5074601;28;20040;-74
2023/01/25 04:27:42;;;;;;;20.48;18.38;;;;;;;3.62;69.21;103521.66;5073157;28;20085;-75
2023/01/25 04:30:08;;;;;;;28.33;19.83;;;;;;;3.63;69.14;103514.53;5075153;28;20025;-74
2023/01/25 04:32:35;;;;;;;20.40;18.05;;;;;;;3.63;68.78;103514.53;5074619;28;20524;-74
2023/01/25 04:35:00;;;;;;;15.60;14.32;;;;;;;3.62;69.07;103515.47;5056490;28;20036;-75
2023/01/25 04:37:26;;;;;;;18.00;16.55;;;;;;;3.61;68.78;103516.47;5074654;28;20039;-74
2023/01/25 04:39:51;;;;;;;50.58;27.08;;;;;;;3.61;69.21;103505.78;5073615;28;20112;-75
2023/01/25 04:42:19;;;;;;;15.32;14.20;;;;;;;3.59;69.03;103503.22;5073372;28;20056;-75
2023/01/25 04:44:44;;;;;;;12.17;11.47;;;;;;;3.59;68.90;103505.91;5073684;28;20024;-75
2023/01/25 04:47:10;;;;;;;37.10;24.33;;;;;;;3.60;68.59;103515.63;5056632;28;20090;-75
2023/01/25 04:49:35;;;;;;;26.63;18.52;;;;;;;3.59;69.03;103505.91;5073963;28;20032;-75
2023/01/25 04:52:01;;;;;;;24.45;20.23;;;;;;;3.58;69.13;103506.88;5072930;28;20097;-75
2023/01/25 04:54:27;;;;;;;18.15;15.88;;;;;;;3.60;69.12;103504.06;5074389;28;20028;-75
2023/01/25 04:56:52;;;;;;;19.75;16.33;;;;;;;3.60;68.95;103512.09;5074449;28;20032;-75
2023/01/25 04:59:17;;;;;;;25.08;19.50;;;;;;;3.59;68.98;103511.25;5073079;28;20494;-74
2023/01/25 05:01:43;;;;;;;29.75;20.20;;;;;;;3.59;68.80;103507.72;5071996;28;20056;-75
2023/01/25 05:04:08;;;;;;;20.77;17.83;;;;;;;3.59;68.98;103502.38;5074683;28;20120;-75
2023/01/25 05:06:34;;;;;;;31.83;23.77;;;;;;;3.57;69.10;103499.00;5074622;28;20071;-75
2023/01/25 05:08:59;;;;;;;25.30;19.13;;;;;;;3.57;68.80;103496.31;5074611;28;20108;-75
2023/01/25 05:11:24;;;;;;;19.15;17.25;;;;;;;3.56;69.08;103492.81;5073735;28;20040;-75
2023/01/25 05:13:50;;;;;;;16.90;14.52;;;;;;;3.58;68.96;103498.00;5072797;28;20509;-74
2023/01/25 05:16:16;;;;;;;23.85;20.20;;;;;;;3.56;68.81;103482.09;5074175;28;20067;-74
2023/01/25 05:18:41;;;;;;;23.98;21.63;;;;;;;3.57;68.87;103482.94;5072246;28;20497;-77
2023/01/25 05:21:56;;;;;;;18.35;16.45;;;;;;;3.56;69.01;103478.59;5073926;28;20032;-73
2023/01/25 05:23:52;;;;;;;27.52;18.52;;;;;;;3.55;68.82;103475.06;5058774;28;20098;-73
2023/01/25 05:29:01;;;;;;;21.15;15.63;;;;;;;3.54;69.01;103477.88;5073963;28;20120;-73
2023/01/25 05:31:27;;;;;;;15.05;13.88;;;;;;;3.53;69.01;103471.69;5073449;28;20052;-73
2023/01/25 05:33:52;;;;;;;29.05;20.95;;;;;;;3.54;69.09;103475.19;5072303;28;20435;-75
2023/01/25 05:36:17;;;;;;;27.60;19.98;;;;;;;3.53;68.89;103469.00;5073565;28;20050;-75
2023/01/25 05:38:43;;;;;;;23.15;20.20;;;;;;;3.53;68.77;103476.16;5073628;28;20064;-75
2023/01/25 05:41:08;;;;;;;32.17;18.42;;;;;;;3.53;68.84;103478.81;5073315;28;20040;-75
2023/01/25 05:43:34;;;;;;;27.83;19.08;;;;;;;3.53;68.81;103473.47;5073627;28;20489;-75
2023/01/25 05:45:59;;;;;;;20.50;18.40;;;;;;;3.52;69.06;103479.81;5072196;28;20029;-74
2023/01/25 05:48:24;;;;;;;28.55;21.33;;;;;;;3.53;69.11;103479.69;5055920;28;20033;-75
2023/01/25 05:50:50;;;;;;;31.45;18.98;;;;;;;3.53;68.98;103461.00;5073629;28;20036;-75
2023/01/25 05:53:15;;;;;;;29.83;22.52;;;;;;;3.54;69.13;103464.50;5072015;28;20491;-75
2023/01/25 05:55:40;;;;;;;45.03;24.70;;;;;;;3.53;69.12;103462.78;5073331;28;20036;-75
2023/01/25 05:58:06;;;;;;;43.03;22.70;;;;;;;3.52;69.07;103461.94;5073376;28;20033;-74
2023/01/25 06:00:31;;;;;;;26.95;20.70;;;;;;;3.52;68.62;103461.09;5073406;28;20036;-75
2023/01/25 06:02:59;;;;;;;25.50;19.65;;;;;;;3.52;68.61;103463.78;5073261;28;20489;-75
2023/01/25 06:05:24;;;;;;;20.67;15.13;;;;;;;3.51;68.75;103468.28;5073630;28;20487;-75
2023/01/25 06:07:50;;;;;;;43.40;20.65;;;;;;;3.51;68.75;103465.63;5073239;28;20345;-74
2023/01/25 06:10:15;;;;;;;26.05;19.88;;;;;;;3.51;68.80;103464.78;5073360;28;20036;-74
2023/01/25 06:12:41;;;;;;;18.60;16.88;;;;;;;3.50;68.73;103479.94;5073189;28;20033;-74
2023/01/25 06:15:06;;;;;;;25.77;19.58;;;;;;;3.50;69.00;103468.41;5073752;28;20044;-75
2023/01/25 06:17:32;;;;;;;29.00;21.73;;;;;;;3.50;68.98;103469.25;5073389;28;20029;-74
2023/01/25 06:19:57;;;;;;;32.53;23.30;;;;;;;3.50;69.06;103461.22;5073194;28;20518;-74
2023/01/25 06:22:22;;;;;;;31.05;21.40;;;;;;;3.49;69.00;103472.91;5055170;28;20086;-74
2023/01/25 06:24:48;;;;;;;31.50;22.95;;;;;;;3.50;68.71;103471.91;5055411;28;20035;-75
2023/01/25 06:27:13;;;;;;;23.75;17.90;;;;;;;3.50;68.80;103477.25;5073459;28;20411;-73
2023/01/25 06:29:39;;;;;;;37.80;21.40;;;;;;;3.50;68.79;103469.25;5055152;28;20028;-75
2023/01/25 06:32:04;;;;;;;35.78;21.65;;;;;;;3.49;68.84;103466.72;5072969;28;20039;-75
2023/01/25 06:34:30;;;;;;;18.13;15.82;;;;;;;3.47;68.87;103469.50;5073391;28;20037;-76
2023/01/25 06:36:55;;;;;;;27.77;21.30;;;;;;;3.47;68.82;103464.16;5072857;28;20028;-74
2023/01/25 06:39:21;;;;;;;20.75;18.70;;;;;;;3.47;68.86;103473.03;5073130;28;20054;-75
2023/01/25 06:41:46;;;;;;;32.10;20.52;;;;;;;3.47;68.87;103470.34;5073237;28;20040;-75
2023/01/25 06:44:11;;;;;;;17.65;16.08;;;;;;;3.46;68.85;103470.50;5072996;28;20036;-74
2023/01/25 06:46:37;;;;;;;18.40;16.70;;;;;;;3.46;68.61;103467.81;5071738;28;20499;-76
2023/01/25 06:49:02;;;;;;;23.00;19.15;;;;;;;3.46;68.61;103470.50;5072282;28;20100;-75
2023/01/25 06:51:28;;;;;;;24.40;19.38;;;;;;;3.45;68.80;103463.44;5072829;28;20107;-75
2023/01/25 06:53:53;;;;;;;30.60;22.23;;;;;;;3.45;68.56;103466.97;5073042;28;20028;-74
2023/01/25 06:56:21;;;;;;;32.88;24.02;;;;;;;3.45;68.80;103461.63;5072937;28;20078;-75
2023/01/25 06:58:47;;;;;;;26.30;17.80;;;;;;;3.45;68.93;103458.09;5072980;28;20041;-74
2023/01/25 07:01:18;;;;;;;28.30;20.05;;;;;;;3.44;68.77;103462.59;5071170;28;20056;-74
2023/01/25 07:03:48;;;;;;;22.63;19.13;;;;;;;3.44;68.80;103457.25;5072974;28;20043;-75
2023/01/25 07:06:13;;;;;;;22.73;20.05;;;;;;;3.44;68.60;103459.94;5074043;28;20021;-75
2023/01/25 07:08:38;;;;;;;26.70;18.65;;;;;;;3.44;68.95;103462.59;5076160;28;20031;-75
2023/01/25 07:11:08;;;;;;;29.25;21.48;;;;;;;3.44;68.60;103467.09;5076392;28;20052;-74
2023/01/25 07:13:34;;;;;;;22.20;19.83;;;;;;;3.43;68.56;103466.25;5075228;28;20119;-76
2023/01/25 07:16:02;;;;;;;37.13;23.92;;;;;;;3.43;68.63;103466.25;5075829;28;20495;-74
2023/01/25 07:18:31;;;;;;;34.37;24.47;;;;;;;3.44;69.00;103469.78;5075610;28;20142;-75
2023/01/25 07:21:08;;;;;;;43.83;24.92;;;;;;;3.43;68.71;103462.75;5075803;28;20118;-75
2023/01/25 07:23:36;;;;;;;34.75;22.58;;;;;;;3.43;68.63;103460.91;5074899;28;20035;-74
2023/01/25 07:26:02;;;;;;;31.20;20.20;;;;;;;3.43;68.96;103455.56;5076236;28;20036;-76
2023/01/25 07:28:28;;;;;;;15.38;13.90;;;;;;;3.42;68.74;103456.53;5076258;28;20127;-75
2023/01/25 07:30:53;;;;;;;28.08;20.98;;;;;;;3.42;68.62;103448.50;5075489;28;20032;-73
2023/01/25 07:33:18;;;;;;;18.92;17.33;;;;;;;3.41;68.84;103451.34;5075488;28;20074;-75
2023/01/25 07:35:44;;;;;;;32.60;21.67;;;;;;;3.41;68.72;103446.81;5074259;28;20436;-74
2023/01/25 07:38:09;;;;;;;30.02;20.05;;;;;;;3.41;68.50;103452.19;5075835;28;20321;-74
2023/01/25 07:40:34;;;;;;;15.68;13.93;;;;;;;3.41;68.83;103452.19;5075391;28;20484;-73
2023/01/25 07:43:00;;;;;;;28.42;19.33;;;;;;;3.41;68.76;103451.34;5074285;28;20127;-75
2023/01/25 07:45:29;;;;;;;26.02;20.13;;;;;;;3.40;68.77;103463.84;5075206;28;20082;-75
2023/01/25 07:47:56;;;;;;;23.63;21.17;;;;;;;3.40;68.56;103454.97;5075112;28;20073;-73
2023/01/25 07:50:22;;;;;;;26.25;20.55;;;;;;;3.39;68.65;103455.94;5075386;28;20119;-74
2023/01/25 07:52:47;;;;;;;34.05;21.23;;;;;;;3.39;68.84;103443.44;5075271;28;20115;-74
2023/01/25 07:55:12;;;;;;;23.63;17.42;;;;;;;3.39;68.54;103443.44;5075159;28;20033;-74
2023/01/25 07:57:38;;;;;;;23.48;17.50;;;;;;;3.39;68.54;103447.94;5075010;28;20024;-75
2023/01/25 08:00:09;;;;;;;22.77;20.58;;;;;;;3.39;68.80;103443.44;5074662;28;20029;-75
2023/01/25 08:02:34;;;;;;;15.43;14.35;;;;;;;3.39;68.87;103439.91;5074701;28;20040;-75
2023/01/25 08:05:00;;;;;;;53.92;28.35;;;;;;;3.38;68.83;103441.75;5074583;28;20085;-75
2023/01/25 08:07:27;;;;;;;24.65;17.05;;;;;;;3.38;68.66;103436.41;5074761;28;20064;-75
2023/01/25 08:09:53;;;;;;;29.67;21.73;;;;;;;3.38;68.63;103428.38;5073490;28;20123;-74
2023/01/25 08:12:18;;;;;;;17.60;15.60;;;;;;;3.38;68.65;103433.72;5074896;28;20074;-80
2023/01/25 08:14:44;;;;;;;18.40;16.63;;;;;;;3.37;68.65;103440.03;5074363;28;20039;-75
2023/01/25 08:17:09;;;;;;;21.35;19.23;;;;;;;3.38;68.67;103438.25;5072968;28;20174;-74
2023/01/25 08:19:34;;;;;;;29.15;21.50;;;;;;;3.38;68.95;103438.25;5075129;28;20040;-75
2023/01/25 08:22:00;;;;;;;22.67;18.63;;;;;;;3.36;68.61;103433.00;5074572;28;20036;-75
2023/01/25 08:24:25;;;;;;;16.48;15.02;;;;;;;3.35;68.91;103428.66;5073195;28;20066;-74
2023/01/25 08:26:50;;;;;;;29.63;20.52;;;;;;;3.36;68.73;103432.16;5074462;28;20071;-74
2023/01/25 08:29:16;;;;;;;20.00;17.73;;;;;;;3.35;68.81;103434.00;5074679;28;20029;-77
2023/01/25 08:31:43;;;;;;;20.25;18.27;;;;;;;3.35;68.67;103428.66;5073341;28;20460;-75
2023/01/25 08:34:10;;;;;;;30.35;19.80;;;;;;;3.35;68.62;103420.63;5074596;28;20028;-75
2023/01/25 08:36:36;;;;;;;24.48;20.17;;;;;;;3.35;68.64;103428.66;5073886;28;20065;-75
2023/01/25 08:39:05;;;;;;;16.33;14.70;;;;;;;3.34;68.95;103426.94;5073876;28;20028;-75
2023/01/25 08:41:32;;;;;;;15.48;14.25;;;;;;;3.33;68.78;103427.94;5073177;28;20037;-75
2023/01/25 08:43:58;;;;;;;13.65;12.60;;;;;;;3.34;68.85;103426.94;5074095;28;20048;-75
2023/01/25 08:46:25;;;;;;;46.67;26.27;;;;;;;3.33;68.58;103425.25;5072767;28;20472;-75
2023/01/25 08:48:56;;;;;;;25.67;18.38;;;;;;;3.34;68.75;103428.78;5056480;28;20044;-76
2023/01/25 08:51:23;;;;;;;17.75;14.13;;;;;;;3.34;68.72;103428.78;5073904;28;20038;-75
2023/01/25 08:53:48;;;;;;;15.35;13.95;;;;;;;3.33;68.54;103427.09;5074049;28;20036;-76
2023/01/25 08:56:15;;;;;;;30.63;20.35;;;;;;;3.33;68.81;103429.75;5073514;28;20036;-76
2023/01/25 08:58:45;;;;;;;41.30;21.27;;;;;;;3.32;68.59;103426.22;5073499;28;20404;-74
2023/01/25 09:01:14;;;;;;;35.42;23.05;;;;;;;3.32;68.67;103420.03;5073629;28;20480;-74
2023/01/25 09:03:42;;;;;;;24.50;18.52;;;;;;;3.32;68.62;103422.72;5073820;28;20068;-74
2023/01/25 09:06:08;;;;;;;35.55;20.73;;;;;;;3.31;68.73;103416.53;5073563;28;20028;-73
2023/01/25 09:08:34;;;;;;;37.33;23.17;;;;;;;3.33;68.90;103421.75;5071857;28;20119;-74
2023/01/25 09:11:05;;;;;;;13.65;12.70;;;;;;;3.32;68.44;103407.50;5073796;28;20052;-75
2023/01/25 09:13:31;;;;;;;28.45;21.67;;;;;;;3.32;68.47;103414.69;5073561;28;20114;-72
2023/01/25 09:16:06;;;;;;;26.48;20.40;;;;;;;3.30;68.82;103401.47;5072044;28;20469;-75
2023/01/25 09:18:32;;;;;;;18.50;16.80;;;;;;;3.32;68.66;103412.84;5073262;28;20032;-73
2023/01/25 09:21:05;;;;;;;30.48;18.55;;;;;;;3.31;68.51;103410.34;5073462;28;20024;-73
2023/01/25 09:23:31;;;;;;;23.58;17.80;;;;;;;3.31;68.83;103403.16;5072849;28;20387;-74
2023/01/25 09:25:59;;;;;;;17.70;15.98;;;;;;;3.30;68.70;103406.81;5073391;28;20024;-73
2023/01/25 09:28:25;;;;;;;20.30;17.77;;;;;;;3.31;68.77;103405.84;5072492;28;20405;-74
2023/01/25 09:30:59;;;;;;;36.63;20.77;;;;;;;3.30;68.45;103408.63;5071879;28;20037;-75
2023/01/25 09:33:29;;;;;;;25.52;18.48;;;;;;;3.29;68.80;103410.44;5073561;28;20032;-75
2023/01/25 09:35:55;;;;;;;22.50;16.25;;;;;;;3.29;68.58;103401.59;5073809;28;20031;-75
2023/01/25 09:38:21;;;;;;;23.83;18.42;;;;;;;3.29;68.83;103404.28;5073142;28;20127;-74
2023/01/25 09:41:20;;;;;;;31.13;19.25;;;;;;;3.28;68.70;103406.09;5073226;28;20081;-76
2023/01/25 09:44:01;;;;;;;20.60;18.35;;;;;;;3.29;68.75;103404.28;5068182;28;20396;-76
2023/01/25 09:46:51;;;;;;;24.67;16.95;;;;;;;3.27;68.93;103401.72;5073299;28;20024;-75
2023/01/25 09:49:19;;;;;;;17.65;15.85;;;;;;;3.28;68.76;103407.94;5072998;28;20107;-74
2023/01/25 09:52:23;;;;;;;17.10;13.98;;;;;;;3.27;68.91;103401.72;5073393;28;20445;-75
2023/01/25 09:54:49;;;;;;;19.55;14.70;;;;;;;3.25;68.67;103404.53;5038020;28;20051;-74
2023/01/25 09:57:19;;;;;;;32.42;20.58;;;;;;;3.25;68.84;103399.19;5072843;28;20108;-76
2023/01/25 09:59:48;;;;;;;17.50;16.00;;;;;;;3.26;68.58;103402.69;5073076;28;20032;-74
2023/01/25 10:02:26;;;;;;;35.65;22.58;;;;;;;3.27;69.03;103398.19;5072652;28;20048;-74
2023/01/25 10:04:56;;;;;;;23.60;18.00;;;;;;;3.26;68.94;103392.03;5072847;28;20035;-74
2023/01/25 10:07:27;;;;;;;17.00;15.38;;;;;;;3.25;68.59;103388.50;5072549;28;20047;-75
2023/01/25 10:10:20;;;;;;;21.65;19.25;;;;;;;3.27;68.46;103379.50;5072116;28;20028;-75
2023/01/25 10:12:46;;;;;;;42.67;23.48;;;;;;;3.25;68.70;103375.16;5073099;28;20055;-74
2023/01/25 10:15:20;;;;;;;33.47;17.85;;;;;;;3.25;68.39;103380.50;5054736;28;20036;-73
2023/01/25 10:17:57;;;;;;;27.38;20.58;;;;;;;3.25;68.49;103390.31;5072773;28;20077;-75
2023/01/25 10:20:30;;;;;;;18.88;17.48;;;;;;;3.24;68.82;103392.13;5072555;28;20032;-77
2023/01/25 10:23:11;;;;;;;16.70;15.02;;;;;;;3.24;68.44;103385.94;5071752;28;20024;-75
2023/01/25 10:25:40;;;;;;;27.33;19.55;;;;;;;3.23;68.27;103379.75;5072757;28;20547;-76
2023/01/25 10:28:18;;;;;;;17.40;15.88;;;;;;;3.23;68.50;103379.75;5072839;28;20025;-76
2023/01/25 10:30:55;;;;;;;19.77;18.00;;;;;;;3.21;68.84;103371.03;5071310;28;20043;-76
2023/01/25 10:33:21;;;;;;;21.75;19.27;;;;;;;3.21;68.56;103370.19;5073149;28;20131;-77
2023/01/25 10:35:48;;;;;;;18.90;17.30;;;;;;;3.22;68.80;103353.19;5071404;28;20480;-77
2023/01/25 10:38:24;;;;;;;23.77;18.73;;;;;;;3.21;68.60;103352.34;5071751;28;20033;-75
2023/01/25 10:40:58;;;;;;;27.02;20.42;;;;;;;3.21;68.66;103343.47;5072227;28;20029;-77
2023/01/25 10:43:24;;;;;;;34.85;23.17;;;;;;;3.23;68.50;103341.53;5075534;28;20021;-76
2023/01/25 10:45:50;;;;;;;22.63;19.63;;;;;;;3.21;68.37;103336.31;5075989;28;20491;-76
2023/01/25 10:48:26;;;;;;;22.23;19.73;;;;;;;3.23;68.70;103333.53;5076228;28;20537;-75
2023/01/25 10:50:54;;;;;;;33.45;20.85;;;;;;;3.23;68.62;103329.00;5075989;28;20071;-75
2023/01/25 10:53:36;;;;;;;24.98;17.80;;;;;;;3.23;68.79;103321.00;5076678;28;20032;-75
2023/01/25 10:56:25;;;;;;;22.25;19.77;;;;;;;3.23;68.96;103309.47;5075963;28;20028;-75
2023/01/25 10:59:04;;;;;;;24.52;20.58;;;;;;;3.23;68.66;103315.66;5076294;28;20035;-75
2023/01/25 11:01:32;;;;;;;41.55;19.63;;;;;;;3.23;68.58;103310.31;5075878;28;20149;-76
2023/01/25 11:04:00;;;;;;;29.35;20.65;;;;;;;3.22;68.52;103297.91;5075653;28;20028;-73
2023/01/25 11:06:37;;;;;;;24.85;19.88;;;;;;;3.23;68.96;103296.97;5075709;28;20036;-73
2023/01/25 11:09:30;;;;;;;24.77;17.55;;;;;;;3.22;68.71;103292.56;5075407;28;20354;-79
2023/01/25 11:11:57;;;;;;;17.60;16.10;;;;;;;3.23;68.78;103293.44;5075987;28;20029;-73
2023/01/25 11:14:26;;;;;;;34.22;19.17;;;;;;;3.22;68.71;103286.41;5075877;28;20376;-74
2023/01/25 11:16:52;;;;;;;23.40;20.92;;;;;;;3.22;68.62;103279.22;5074311;28;20025;-75
2023/01/25 11:19:32;;;;;;;20.90;15.68;;;;;;;3.23;68.75;103264.91;5075726;28;20039;-75
2023/01/25 11:22:00;;;;;;;14.10;12.95;;;;;;;3.22;68.59;103260.53;5075696;28;20028;-74
2023/01/25 11:24:27;;;;;;;20.73;17.92;;;;;;;3.22;68.59;103251.69;5075596;28;20028;-75